sensor_id;sensor_type;location;lat;lon;timestamp;P1;durP1;ratioP1;P2;durP2;ratioP2
2293;SDS011;1155;42.644;23.264;2023-04-25T00:03:07;5.37;;;4.90;;
2293;SDS011;1155;42.644;23.264;2023-04-25T00:05:48;5.20;;;4.33;;
2293;SDS011;1155;42.644;23.264;2023-04-25T00:08:27;4.00;;;3.70;;
2293;SDS011;1155;42.644;23.264;2023-04-25T00:10:57;2.10;;;1.90;;
2293;SDS011;1155;42.644;23.264;2023-04-25T00:13:26;5.70;;;5.20;;
2293;SDS011;1155;42.644;23.264;2023-04-25T00:15:56;7.90;;;5.50;;
2293;SDS011;1155;42.644;23.264;2023-04-25T00:18:29;5.97;;;4.50;;
2293;SDS011;1155;42.644;23.264;2023-04-25T00:20:58;4.30;;;2.33;;
2293;SDS011;1155;42.644;23.264;2023-04-25T00:23:25;2.20;;;2.00;;
2293;SDS011;1155;42.644;23.264;2023-04-25T00:25:52;1.37;;;1.27;;
2293;SDS011;1155;42.644;23.264;2023-04-25T00:28:18;1.00;;;0.90;;
2293;SDS011;1155;42.644;23.264;2023-04-25T00:30:45;3.13;;;1.43;;
2293;SDS011;1155;42.644;23.264;2023-04-25T00:33:13;1.20;;;1.10;;
2293;SDS011;1155;42.644;23.264;2023-04-25T00:35:40;3.57;;;2.30;;
2293;SDS011;1155;42.644;23.264;2023-04-25T00:38:07;1.70;;;1.57;;
2293;SDS011;1155;42.644;23.264;2023-04-25T00:40:34;1.50;;;1.40;;
2293;SDS011;1155;42.644;23.264;2023-04-25T00:43:01;1.60;;;1.50;;
2293;SDS011;1155;42.644;23.264;2023-04-25T00:45:30;5.17;;;3.83;;
2293;SDS011;1155;42.644;23.264;2023-04-25T00:47:57;5.60;;;3.17;;
2293;SDS011;1155;42.644;23.264;2023-04-25T00:50:26;2.13;;;1.73;;
2293;SDS011;1155;42.644;23.264;2023-04-25T00:52:53;3.73;;;3.33;;
2293;SDS011;1155;42.644;23.264;2023-04-25T00:55:21;4.33;;;3.60;;
2293;SDS011;1155;42.644;23.264;2023-04-25T00:57:48;2.60;;;2.40;;
2293;SDS011;1155;42.644;23.264;2023-04-25T01:00:16;2.30;;;2.10;;
2293;SDS011;1155;42.644;23.264;2023-04-25T01:02:44;6.93;;;4.43;;
2293;SDS011;1155;42.644;23.264;2023-04-25T01:05:11;3.90;;;3.50;;
2293;SDS011;1155;42.644;23.264;2023-04-25T01:07:40;3.90;;;3.60;;
2293;SDS011;1155;42.644;23.264;2023-04-25T01:10:07;4.83;;;3.10;;
2293;SDS011;1155;42.644;23.264;2023-04-25T01:12:34;3.90;;;3.53;;
2293;SDS011;1155;42.644;23.264;2023-04-25T01:15:01;5.43;;;4.27;;
2293;SDS011;1155;42.644;23.264;2023-04-25T01:17:28;3.90;;;3.47;;
2293;SDS011;1155;42.644;23.264;2023-04-25T01:19:56;4.43;;;3.37;;
2293;SDS011;1155;42.644;23.264;2023-04-25T01:22:25;5.03;;;4.30;;
2293;SDS011;1155;42.644;23.264;2023-04-25T01:24:52;5.80;;;5.30;;
2293;SDS011;1155;42.644;23.264;2023-04-25T01:27:19;8.93;;;6.50;;
2293;SDS011;1155;42.644;23.264;2023-04-25T01:29:48;7.07;;;6.37;;
2293;SDS011;1155;42.644;23.264;2023-04-25T01:32:16;4.97;;;4.33;;
2293;SDS011;1155;42.644;23.264;2023-04-25T01:34:45;5.30;;;4.80;;
2293;SDS011;1155;42.644;23.264;2023-04-25T01:37:12;6.13;;;3.73;;
2293;SDS011;1155;42.644;23.264;2023-04-25T01:39:41;6.17;;;5.13;;
2293;SDS011;1155;42.644;23.264;2023-04-25T01:42:08;5.17;;;4.30;;
2293;SDS011;1155;42.644;23.264;2023-04-25T01:44:35;5.50;;;4.97;;
2293;SDS011;1155;42.644;23.264;2023-04-25T01:47:05;5.30;;;4.80;;
2293;SDS011;1155;42.644;23.264;2023-04-25T01:49:32;6.70;;;5.30;;
2293;SDS011;1155;42.644;23.264;2023-04-25T01:51:58;11.87;;;8.57;;
2293;SDS011;1155;42.644;23.264;2023-04-25T01:54:25;6.30;;;5.70;;
2293;SDS011;1155;42.644;23.264;2023-04-25T01:56:55;14.80;;;10.73;;
2293;SDS011;1155;42.644;23.264;2023-04-25T01:59:24;8.37;;;7.50;;
2293;SDS011;1155;42.644;23.264;2023-04-25T02:01:51;7.13;;;6.43;;
2293;SDS011;1155;42.644;23.264;2023-04-25T02:04:17;7.20;;;6.50;;
2293;SDS011;1155;42.644;23.264;2023-04-25T02:06:44;11.23;;;7.33;;
2293;SDS011;1155;42.644;23.264;2023-04-25T02:09:11;9.10;;;7.60;;
2293;SDS011;1155;42.644;23.264;2023-04-25T02:11:40;8.70;;;7.13;;
2293;SDS011;1155;42.644;23.264;2023-04-25T02:14:11;8.83;;;6.83;;
2293;SDS011;1155;42.644;23.264;2023-04-25T02:16:38;8.80;;;6.60;;
2293;SDS011;1155;42.644;23.264;2023-04-25T02:19:05;8.73;;;6.53;;
2293;SDS011;1155;42.644;23.264;2023-04-25T02:21:32;9.17;;;6.80;;
2293;SDS011;1155;42.644;23.264;2023-04-25T02:24:02;10.87;;;8.37;;
2293;SDS011;1155;42.644;23.264;2023-04-25T02:26:29;11.07;;;8.90;;
2293;SDS011;1155;42.644;23.264;2023-04-25T02:28:58;10.20;;;7.77;;
2293;SDS011;1155;42.644;23.264;2023-04-25T02:31:27;9.40;;;7.90;;
2293;SDS011;1155;42.644;23.264;2023-04-25T02:33:54;7.20;;;6.50;;
2293;SDS011;1155;42.644;23.264;2023-04-25T02:36:21;8.73;;;7.50;;
2293;SDS011;1155;42.644;23.264;2023-04-25T02:38:49;13.90;;;7.53;;
2293;SDS011;1155;42.644;23.264;2023-04-25T02:41:16;16.30;;;8.77;;
2293;SDS011;1155;42.644;23.264;2023-04-25T02:43:42;9.77;;;8.77;;
2293;SDS011;1155;42.644;23.264;2023-04-25T02:46:09;12.27;;;9.93;;
2293;SDS011;1155;42.644;23.264;2023-04-25T02:48:37;11.10;;;9.47;;
2293;SDS011;1155;42.644;23.264;2023-04-25T02:51:04;12.60;;;8.93;;
2293;SDS011;1155;42.644;23.264;2023-04-25T02:53:31;11.60;;;9.27;;
2293;SDS011;1155;42.644;23.264;2023-04-25T02:55:58;13.20;;;10.07;;
2293;SDS011;1155;42.644;23.264;2023-04-25T02:58:25;9.90;;;7.80;;
2293;SDS011;1155;42.644;23.264;2023-04-25T03:00:52;11.47;;;9.00;;
2293;SDS011;1155;42.644;23.264;2023-04-25T03:03:19;8.77;;;7.97;;
2293;SDS011;1155;42.644;23.264;2023-04-25T03:05:48;9.87;;;8.53;;
2293;SDS011;1155;42.644;23.264;2023-04-25T03:08:15;11.03;;;8.20;;
2293;SDS011;1155;42.644;23.264;2023-04-25T03:10:42;12.53;;;9.30;;
2293;SDS011;1155;42.644;23.264;2023-04-25T03:13:12;8.57;;;7.70;;
2293;SDS011;1155;42.644;23.264;2023-04-25T03:15:39;10.97;;;8.33;;
2293;SDS011;1155;42.644;23.264;2023-04-25T03:18:06;11.00;;;9.53;;
2293;SDS011;1155;42.644;23.264;2023-04-25T03:20:33;10.93;;;8.80;;
2293;SDS011;1155;42.644;23.264;2023-04-25T03:23:01;6.00;;;5.40;;
2293;SDS011;1155;42.644;23.264;2023-04-25T03:25:28;7.13;;;6.33;;
2293;SDS011;1155;42.644;23.264;2023-04-25T03:27:55;9.13;;;8.07;;
2293;SDS011;1155;42.644;23.264;2023-04-25T03:30:21;8.67;;;7.87;;
2293;SDS011;1155;42.644;23.264;2023-04-25T03:32:48;8.50;;;7.70;;
2293;SDS011;1155;42.644;23.264;2023-04-25T03:35:15;7.70;;;7.00;;
2293;SDS011;1155;42.644;23.264;2023-04-25T03:37:42;8.00;;;7.30;;
2293;SDS011;1155;42.644;23.264;2023-04-25T03:40:12;7.33;;;6.50;;
2293;SDS011;1155;42.644;23.264;2023-04-25T03:42:39;7.00;;;6.20;;
2293;SDS011;1155;42.644;23.264;2023-04-25T03:45:06;7.50;;;6.77;;
2293;SDS011;1155;42.644;23.264;2023-04-25T03:47:34;6.43;;;5.90;;
2293;SDS011;1155;42.644;23.264;2023-04-25T03:50:01;16.27;;;7.33;;
2293;SDS011;1155;42.644;23.264;2023-04-25T03:52:28;6.30;;;5.70;;
2293;SDS011;1155;42.644;23.264;2023-04-25T03:54:54;5.63;;;4.90;;
2293;SDS011;1155;42.644;23.264;2023-04-25T03:57:23;5.90;;;5.30;;
2293;SDS011;1155;42.644;23.264;2023-04-25T03:59:50;6.20;;;4.90;;
2293;SDS011;1155;42.644;23.264;2023-04-25T04:02:17;5.23;;;4.83;;
2293;SDS011;1155;42.644;23.264;2023-04-25T04:04:44;4.13;;;3.80;;
2293;SDS011;1155;42.644;23.264;2023-04-25T04:07:11;3.93;;;3.57;;
2293;SDS011;1155;42.644;23.264;2023-04-25T04:09:38;4.20;;;3.80;;
2293;SDS011;1155;42.644;23.264;2023-04-25T04:12:05;4.00;;;2.73;;
2293;SDS011;1155;42.644;23.264;2023-04-25T04:14:33;3.13;;;2.90;;
2293;SDS011;1155;42.644;23.264;2023-04-25T04:17:00;2.80;;;2.60;;
2293;SDS011;1155;42.644;23.264;2023-04-25T04:19:27;3.67;;;3.37;;
2293;SDS011;1155;42.644;23.264;2023-04-25T04:21:54;3.97;;;3.70;;
2293;SDS011;1155;42.644;23.264;2023-04-25T04:24:21;3.70;;;3.10;;
2293;SDS011;1155;42.644;23.264;2023-04-25T04:26:48;3.40;;;3.10;;
2293;SDS011;1155;42.644;23.264;2023-04-25T04:29:15;4.63;;;3.10;;
2293;SDS011;1155;42.644;23.264;2023-04-25T04:31:48;4.20;;;3.20;;
2293;SDS011;1155;42.644;23.264;2023-04-25T04:34:15;7.07;;;4.50;;
2293;SDS011;1155;42.644;23.264;2023-04-25T04:36:43;5.10;;;4.40;;
2293;SDS011;1155;42.644;23.264;2023-04-25T04:39:11;5.27;;;4.77;;
2293;SDS011;1155;42.644;23.264;2023-04-25T04:41:38;2.70;;;2.50;;
2293;SDS011;1155;42.644;23.264;2023-04-25T04:44:05;3.23;;;2.93;;
2293;SDS011;1155;42.644;23.264;2023-04-25T04:46:34;2.93;;;2.73;;
2293;SDS011;1155;42.644;23.264;2023-04-25T04:49:08;4.17;;;3.40;;
2293;SDS011;1155;42.644;23.264;2023-04-25T04:51:35;5.20;;;2.57;;
2293;SDS011;1155;42.644;23.264;2023-04-25T04:54:02;2.17;;;2.07;;
2293;SDS011;1155;42.644;23.264;2023-04-25T04:56:29;2.37;;;2.27;;
2293;SDS011;1155;42.644;23.264;2023-04-25T04:58:56;1.83;;;1.73;;
2293;SDS011;1155;42.644;23.264;2023-04-25T05:01:24;2.73;;;1.70;;
2293;SDS011;1155;42.644;23.264;2023-04-25T05:03:51;2.73;;;1.80;;
2293;SDS011;1155;42.644;23.264;2023-04-25T05:06:20;2.20;;;2.00;;
2293;SDS011;1155;42.644;23.264;2023-04-25T05:08:47;3.53;;;2.00;;
2293;SDS011;1155;42.644;23.264;2023-04-25T05:11:14;3.30;;;2.53;;
2293;SDS011;1155;42.644;23.264;2023-04-25T05:13:43;3.43;;;1.80;;
2293;SDS011;1155;42.644;23.264;2023-04-25T05:16:10;1.40;;;1.30;;
2293;SDS011;1155;42.644;23.264;2023-04-25T05:18:39;8.93;;;4.53;;
2293;SDS011;1155;42.644;23.264;2023-04-25T05:21:06;6.80;;;6.10;;
2293;SDS011;1155;42.644;23.264;2023-04-25T05:23:34;12.33;;;6.80;;
2293;SDS011;1155;42.644;23.264;2023-04-25T05:26:01;4.40;;;3.90;;
2293;SDS011;1155;42.644;23.264;2023-04-25T05:28:28;4.50;;;3.80;;
2293;SDS011;1155;42.644;23.264;2023-04-25T05:30:55;3.37;;;3.07;;
2293;SDS011;1155;42.644;23.264;2023-04-25T05:33:22;7.77;;;6.97;;
2293;SDS011;1155;42.644;23.264;2023-04-25T05:35:53;14.70;;;9.57;;
2293;SDS011;1155;42.644;23.264;2023-04-25T05:38:20;10.43;;;8.70;;
2293;SDS011;1155;42.644;23.264;2023-04-25T05:40:48;9.83;;;8.70;;
2293;SDS011;1155;42.644;23.264;2023-04-25T05:43:15;9.87;;;8.93;;
2293;SDS011;1155;42.644;23.264;2023-04-25T05:45:42;13.37;;;10.47;;
2293;SDS011;1155;42.644;23.264;2023-04-25T05:48:09;13.10;;;11.30;;
2293;SDS011;1155;42.644;23.264;2023-04-25T05:50:36;14.37;;;12.13;;
2293;SDS011;1155;42.644;23.264;2023-04-25T05:53:02;13.17;;;11.40;;
2293;SDS011;1155;42.644;23.264;2023-04-25T05:55:30;15.30;;;11.00;;
2293;SDS011;1155;42.644;23.264;2023-04-25T05:57:59;14.03;;;10.93;;
2293;SDS011;1155;42.644;23.264;2023-04-25T06:00:25;13.03;;;11.63;;
2293;SDS011;1155;42.644;23.264;2023-04-25T06:02:52;10.47;;;9.37;;
2293;SDS011;1155;42.644;23.264;2023-04-25T06:05:20;11.87;;;10.67;;
2293;SDS011;1155;42.644;23.264;2023-04-25T06:07:46;11.80;;;10.53;;
2293;SDS011;1155;42.644;23.264;2023-04-25T06:10:13;11.53;;;10.43;;
2293;SDS011;1155;42.644;23.264;2023-04-25T06:12:47;11.50;;;10.40;;
2293;SDS011;1155;42.644;23.264;2023-04-25T06:15:16;11.30;;;10.20;;
2293;SDS011;1155;42.644;23.264;2023-04-25T06:17:42;13.60;;;12.20;;
2293;SDS011;1155;42.644;23.264;2023-04-25T06:20:10;15.00;;;13.10;;
2293;SDS011;1155;42.644;23.264;2023-04-25T06:22:37;14.43;;;12.70;;
2293;SDS011;1155;42.644;23.264;2023-04-25T06:25:04;16.07;;;13.60;;
2293;SDS011;1155;42.644;23.264;2023-04-25T06:27:32;17.30;;;14.53;;
2293;SDS011;1155;42.644;23.264;2023-04-25T06:29:59;18.50;;;15.17;;
2293;SDS011;1155;42.644;23.264;2023-04-25T06:32:30;20.23;;;15.47;;
2293;SDS011;1155;42.644;23.264;2023-04-25T06:34:57;20.60;;;14.50;;
2293;SDS011;1155;42.644;23.264;2023-04-25T06:37:24;13.87;;;12.47;;
2293;SDS011;1155;42.644;23.264;2023-04-25T06:39:51;12.43;;;11.17;;
2293;SDS011;1155;42.644;23.264;2023-04-25T06:42:18;14.23;;;10.60;;
2293;SDS011;1155;42.644;23.264;2023-04-25T06:44:45;15.30;;;11.93;;
2293;SDS011;1155;42.644;23.264;2023-04-25T06:47:11;16.10;;;10.00;;
2293;SDS011;1155;42.644;23.264;2023-04-25T06:49:41;11.90;;;9.90;;
2293;SDS011;1155;42.644;23.264;2023-04-25T06:52:12;11.07;;;9.93;;
2293;SDS011;1155;42.644;23.264;2023-04-25T06:54:43;10.67;;;8.77;;
2293;SDS011;1155;42.644;23.264;2023-04-25T06:57:10;10.83;;;9.77;;
2293;SDS011;1155;42.644;23.264;2023-04-25T06:59:37;10.90;;;9.83;;
2293;SDS011;1155;42.644;23.264;2023-04-25T07:02:04;11.53;;;10.07;;
2293;SDS011;1155;42.644;23.264;2023-04-25T07:04:31;14.13;;;10.37;;
2293;SDS011;1155;42.644;23.264;2023-04-25T07:07:01;9.60;;;8.67;;
2293;SDS011;1155;42.644;23.264;2023-04-25T07:09:31;9.43;;;8.43;;
2293;SDS011;1155;42.644;23.264;2023-04-25T07:11:59;9.30;;;8.40;;
2293;SDS011;1155;42.644;23.264;2023-04-25T07:14:26;10.83;;;9.73;;
2293;SDS011;1155;42.644;23.264;2023-04-25T07:16:53;12.77;;;10.03;;
2293;SDS011;1155;42.644;23.264;2023-04-25T07:19:22;11.70;;;10.60;;
2293;SDS011;1155;42.644;23.264;2023-04-25T07:21:51;13.73;;;12.20;;
2293;SDS011;1155;42.644;23.264;2023-04-25T07:24:19;13.80;;;12.37;;
2293;SDS011;1155;42.644;23.264;2023-04-25T07:26:46;11.47;;;10.47;;
2293;SDS011;1155;42.644;23.264;2023-04-25T07:29:13;13.60;;;10.70;;
2293;SDS011;1155;42.644;23.264;2023-04-25T07:31:40;10.60;;;9.07;;
2293;SDS011;1155;42.644;23.264;2023-04-25T07:34:07;11.97;;;10.77;;
2293;SDS011;1155;42.644;23.264;2023-04-25T07:36:34;11.00;;;9.77;;
2293;SDS011;1155;42.644;23.264;2023-04-25T07:39:00;12.10;;;9.37;;
2293;SDS011;1155;42.644;23.264;2023-04-25T07:41:29;10.10;;;8.40;;
2293;SDS011;1155;42.644;23.264;2023-04-25T07:43:56;14.67;;;8.80;;
2293;SDS011;1155;42.644;23.264;2023-04-25T07:46:22;10.10;;;7.70;;
2293;SDS011;1155;42.644;23.264;2023-04-25T07:48:50;8.10;;;7.27;;
2293;SDS011;1155;42.644;23.264;2023-04-25T07:51:17;9.40;;;8.50;;
2293;SDS011;1155;42.644;23.264;2023-04-25T07:53:45;9.03;;;8.23;;
2293;SDS011;1155;42.644;23.264;2023-04-25T07:56:12;9.93;;;7.60;;
2293;SDS011;1155;42.644;23.264;2023-04-25T07:58:40;9.87;;;5.70;;
2293;SDS011;1155;42.644;23.264;2023-04-25T08:01:07;9.17;;;5.70;;
2293;SDS011;1155;42.644;23.264;2023-04-25T08:03:37;5.90;;;4.30;;
2293;SDS011;1155;42.644;23.264;2023-04-25T08:06:04;2.20;;;2.00;;
2293;SDS011;1155;42.644;23.264;2023-04-25T08:08:31;1.40;;;1.30;;
2293;SDS011;1155;42.644;23.264;2023-04-25T08:10:58;1.30;;;1.20;;
2293;SDS011;1155;42.644;23.264;2023-04-25T08:13:25;3.67;;;1.80;;
2293;SDS011;1155;42.644;23.264;2023-04-25T08:15:53;1.63;;;1.53;;
2293;SDS011;1155;42.644;23.264;2023-04-25T08:18:20;1.20;;;1.10;;
2293;SDS011;1155;42.644;23.264;2023-04-25T08:20:47;1.93;;;1.50;;
2293;SDS011;1155;42.644;23.264;2023-04-25T08:23:14;2.93;;;1.90;;
2293;SDS011;1155;42.644;23.264;2023-04-25T08:25:42;1.90;;;1.80;;
2293;SDS011;1155;42.644;23.264;2023-04-25T08:28:09;2.23;;;2.13;;
2293;SDS011;1155;42.644;23.264;2023-04-25T08:30:36;1.67;;;1.57;;
2293;SDS011;1155;42.644;23.264;2023-04-25T08:33:04;2.70;;;2.07;;
2293;SDS011;1155;42.644;23.264;2023-04-25T08:35:31;2.47;;;1.70;;
2293;SDS011;1155;42.644;23.264;2023-04-25T08:38:01;1.93;;;1.43;;
2293;SDS011;1155;42.644;23.264;2023-04-25T08:40:28;2.00;;;1.80;;
2293;SDS011;1155;42.644;23.264;2023-04-25T08:42:55;2.53;;;2.10;;
2293;SDS011;1155;42.644;23.264;2023-04-25T08:45:24;1.80;;;1.70;;
2293;SDS011;1155;42.644;23.264;2023-04-25T08:47:52;2.17;;;2.03;;
2293;SDS011;1155;42.644;23.264;2023-04-25T08:50:23;1.70;;;1.60;;
2293;SDS011;1155;42.644;23.264;2023-04-25T08:52:51;1.77;;;1.67;;
2293;SDS011;1155;42.644;23.264;2023-04-25T08:55:20;1.37;;;1.27;;
2293;SDS011;1155;42.644;23.264;2023-04-25T08:57:48;2.70;;;2.07;;
2293;SDS011;1155;42.644;23.264;2023-04-25T09:00:16;2.57;;;1.73;;
2293;SDS011;1155;42.644;23.264;2023-04-25T09:02:45;3.53;;;1.73;;
2293;SDS011;1155;42.644;23.264;2023-04-25T09:05:13;3.27;;;1.83;;
2293;SDS011;1155;42.644;23.264;2023-04-25T09:07:42;2.13;;;1.30;;
2293;SDS011;1155;42.644;23.264;2023-04-25T09:10:09;1.80;;;1.70;;
2293;SDS011;1155;42.644;23.264;2023-04-25T09:12:36;1.80;;;1.70;;
2293;SDS011;1155;42.644;23.264;2023-04-25T09:15:03;2.73;;;1.40;;
2293;SDS011;1155;42.644;23.264;2023-04-25T09:17:32;2.23;;;1.40;;
2293;SDS011;1155;42.644;23.264;2023-04-25T09:20:08;1.40;;;1.30;;
2293;SDS011;1155;42.644;23.264;2023-04-25T09:22:36;1.80;;;1.70;;
2293;SDS011;1155;42.644;23.264;2023-04-25T09:25:07;2.23;;;1.93;;
2293;SDS011;1155;42.644;23.264;2023-04-25T09:27:35;2.63;;;1.77;;
2293;SDS011;1155;42.644;23.264;2023-04-25T09:30:02;1.27;;;0.90;;
2293;SDS011;1155;42.644;23.264;2023-04-25T09:32:30;1.80;;;1.50;;
2293;SDS011;1155;42.644;23.264;2023-04-25T09:34:57;2.17;;;1.50;;
2293;SDS011;1155;42.644;23.264;2023-04-25T09:37:25;2.47;;;1.40;;
2293;SDS011;1155;42.644;23.264;2023-04-25T09:39:53;3.53;;;1.40;;
2293;SDS011;1155;42.644;23.264;2023-04-25T09:42:23;2.57;;;2.37;;
2293;SDS011;1155;42.644;23.264;2023-04-25T09:44:51;3.00;;;2.00;;
2293;SDS011;1155;42.644;23.264;2023-04-25T09:47:19;2.43;;;2.07;;
2293;SDS011;1155;42.644;23.264;2023-04-25T09:49:48;2.67;;;1.73;;
2293;SDS011;1155;42.644;23.264;2023-04-25T09:52:17;5.60;;;3.13;;
2293;SDS011;1155;42.644;23.264;2023-04-25T09:54:45;3.37;;;2.00;;
2293;SDS011;1155;42.644;23.264;2023-04-25T09:57:13;0.80;;;0.73;;
2293;SDS011;1155;42.644;23.264;2023-04-25T09:59:44;2.60;;;0.90;;
2293;SDS011;1155;42.644;23.264;2023-04-25T10:02:12;5.17;;;1.53;;
2293;SDS011;1155;42.644;23.264;2023-04-25T10:04:41;1.40;;;0.87;;
2293;SDS011;1155;42.644;23.264;2023-04-25T10:07:11;1.73;;;1.33;;
2293;SDS011;1155;42.644;23.264;2023-04-25T10:09:38;1.30;;;1.00;;
2293;SDS011;1155;42.644;23.264;2023-04-25T10:12:06;2.90;;;1.80;;
2293;SDS011;1155;42.644;23.264;2023-04-25T10:14:33;2.83;;;0.90;;
2293;SDS011;1155;42.644;23.264;2023-04-25T10:17:02;2.90;;;1.40;;
2293;SDS011;1155;42.644;23.264;2023-04-25T10:19:31;2.27;;;1.00;;
2293;SDS011;1155;42.644;23.264;2023-04-25T10:22:02;1.20;;;0.80;;
2293;SDS011;1155;42.644;23.264;2023-04-25T10:24:33;1.60;;;0.93;;
2293;SDS011;1155;42.644;23.264;2023-04-25T10:27:02;2.00;;;0.80;;
2293;SDS011;1155;42.644;23.264;2023-04-25T10:29:29;1.00;;;0.90;;
2293;SDS011;1155;42.644;23.264;2023-04-25T10:31:56;0.87;;;0.80;;
2293;SDS011;1155;42.644;23.264;2023-04-25T10:34:37;0.80;;;0.70;;
2293;SDS011;1155;42.644;23.264;2023-04-25T10:37:05;1.13;;;0.90;;
2293;SDS011;1155;42.644;23.264;2023-04-25T10:39:35;1.30;;;0.93;;
2293;SDS011;1155;42.644;23.264;2023-04-25T10:42:04;2.50;;;1.20;;
2293;SDS011;1155;42.644;23.264;2023-04-25T10:44:32;0.97;;;0.80;;
2293;SDS011;1155;42.644;23.264;2023-04-25T10:47:01;1.00;;;0.90;;
2293;SDS011;1155;42.644;23.264;2023-04-25T10:49:32;1.10;;;0.90;;
2293;SDS011;1155;42.644;23.264;2023-04-25T10:52:16;3.67;;;1.50;;
2293;SDS011;1155;42.644;23.264;2023-04-25T10:54:48;0.90;;;0.67;;
2293;SDS011;1155;42.644;23.264;2023-04-25T10:57:28;2.80;;;0.80;;
2293;SDS011;1155;42.644;23.264;2023-04-25T10:59:59;1.20;;;1.00;;
2293;SDS011;1155;42.644;23.264;2023-04-25T11:02:30;1.00;;;0.80;;
2293;SDS011;1155;42.644;23.264;2023-04-25T11:04:58;1.20;;;0.80;;
2293;SDS011;1155;42.644;23.264;2023-04-25T11:07:29;1.07;;;0.83;;
2293;SDS011;1155;42.644;23.264;2023-04-25T11:10:04;2.07;;;0.93;;
2293;SDS011;1155;42.644;23.264;2023-04-25T11:12:32;1.00;;;0.80;;
2293;SDS011;1155;42.644;23.264;2023-04-25T11:14:59;2.03;;;0.90;;
2293;SDS011;1155;42.644;23.264;2023-04-25T11:17:27;1.30;;;0.80;;
2293;SDS011;1155;42.644;23.264;2023-04-25T11:19:54;1.00;;;0.70;;
2293;SDS011;1155;42.644;23.264;2023-04-25T11:22:23;2.13;;;0.97;;
2293;SDS011;1155;42.644;23.264;2023-04-25T11:24:50;1.70;;;1.10;;
2293;SDS011;1155;42.644;23.264;2023-04-25T11:27:17;1.50;;;1.10;;
2293;SDS011;1155;42.644;23.264;2023-04-25T11:29:44;1.40;;;1.00;;
2293;SDS011;1155;42.644;23.264;2023-04-25T11:32:13;2.83;;;1.20;;
2293;SDS011;1155;42.644;23.264;2023-04-25T11:34:43;6.33;;;4.60;;
2293;SDS011;1155;42.644;23.264;2023-04-25T11:37:11;6.27;;;3.53;;
2293;SDS011;1155;42.644;23.264;2023-04-25T11:39:43;49.67;;;23.07;;
2293;SDS011;1155;42.644;23.264;2023-04-25T11:42:11;3.97;;;1.93;;
2293;SDS011;1155;42.644;23.264;2023-04-25T11:44:38;4.00;;;2.40;;
2293;SDS011;1155;42.644;23.264;2023-04-25T11:47:06;5.60;;;1.40;;
2293;SDS011;1155;42.644;23.264;2023-04-25T11:49:32;3.10;;;1.90;;
2293;SDS011;1155;42.644;23.264;2023-04-25T11:52:00;8.00;;;1.63;;
2293;SDS011;1155;42.644;23.264;2023-04-25T11:54:27;4.13;;;1.90;;
2293;SDS011;1155;42.644;23.264;2023-04-25T11:56:56;1.43;;;1.33;;
2293;SDS011;1155;42.644;23.264;2023-04-25T11:59:23;1.77;;;1.23;;
2293;SDS011;1155;42.644;23.264;2023-04-25T12:01:51;2.80;;;1.40;;
2293;SDS011;1155;42.644;23.264;2023-04-25T12:04:20;1.10;;;0.90;;
2293;SDS011;1155;42.644;23.264;2023-04-25T12:06:48;1.80;;;1.00;;
2293;SDS011;1155;42.644;23.264;2023-04-25T12:09:16;6.20;;;3.77;;
2293;SDS011;1155;42.644;23.264;2023-04-25T12:11:46;2.40;;;1.53;;
2293;SDS011;1155;42.644;23.264;2023-04-25T12:14:21;0.90;;;0.80;;
2293;SDS011;1155;42.644;23.264;2023-04-25T12:16:49;1.10;;;1.00;;
2293;SDS011;1155;42.644;23.264;2023-04-25T12:19:17;1.23;;;0.83;;
2293;SDS011;1155;42.644;23.264;2023-04-25T12:21:45;0.80;;;0.60;;
2293;SDS011;1155;42.644;23.264;2023-04-25T12:24:13;0.97;;;0.87;;
2293;SDS011;1155;42.644;23.264;2023-04-25T12:26:48;1.20;;;0.90;;
2293;SDS011;1155;42.644;23.264;2023-04-25T12:29:17;1.17;;;0.73;;
2293;SDS011;1155;42.644;23.264;2023-04-25T12:31:47;37.37;;;20.93;;
2293;SDS011;1155;42.644;23.264;2023-04-25T12:34:16;24.80;;;17.53;;
2293;SDS011;1155;42.644;23.264;2023-04-25T12:36:43;4.33;;;2.80;;
2293;SDS011;1155;42.644;23.264;2023-04-25T12:39:35;4.10;;;1.37;;
2293;SDS011;1155;42.644;23.264;2023-04-25T12:42:05;3.67;;;3.30;;
2293;SDS011;1155;42.644;23.264;2023-04-25T12:44:32;1.50;;;1.40;;
2293;SDS011;1155;42.644;23.264;2023-04-25T12:47:01;2.30;;;2.10;;
2293;SDS011;1155;42.644;23.264;2023-04-25T12:49:28;7.47;;;6.87;;
2293;SDS011;1155;42.644;23.264;2023-04-25T12:51:58;8.27;;;7.67;;
2293;SDS011;1155;42.644;23.264;2023-04-25T12:54:25;2.33;;;1.93;;
2293;SDS011;1155;42.644;23.264;2023-04-25T12:56:52;4.23;;;2.20;;
2293;SDS011;1155;42.644;23.264;2023-04-25T12:59:19;2.90;;;2.13;;
2293;SDS011;1155;42.644;23.264;2023-04-25T13:01:46;2.23;;;1.40;;
2293;SDS011;1155;42.644;23.264;2023-04-25T13:04:15;3.70;;;2.73;;
2293;SDS011;1155;42.644;23.264;2023-04-25T13:06:42;3.40;;;3.10;;
2293;SDS011;1155;42.644;23.264;2023-04-25T13:09:09;4.43;;;2.40;;
2293;SDS011;1155;42.644;23.264;2023-04-25T13:11:37;1.97;;;1.80;;
2293;SDS011;1155;42.644;23.264;2023-04-25T13:14:04;2.77;;;2.47;;
2293;SDS011;1155;42.644;23.264;2023-04-25T13:16:31;1.33;;;1.20;;
2293;SDS011;1155;42.644;23.264;2023-04-25T13:19:07;2.70;;;1.40;;
2293;SDS011;1155;42.644;23.264;2023-04-25T13:25:07;2.90;;;1.13;;
2293;SDS011;1155;42.644;23.264;2023-04-25T13:27:34;2.90;;;1.50;;
2293;SDS011;1155;42.644;23.264;2023-04-25T13:30:09;1.20;;;1.10;;
2293;SDS011;1155;42.644;23.264;2023-04-25T13:32:40;5.80;;;5.40;;
2293;SDS011;1155;42.644;23.264;2023-04-25T13:35:20;1.60;;;1.50;;
2293;SDS011;1155;42.644;23.264;2023-04-25T13:37:54;1.50;;;1.17;;
2293;SDS011;1155;42.644;23.264;2023-04-25T13:40:21;2.20;;;1.53;;
2293;SDS011;1155;42.644;23.264;2023-04-25T13:42:58;1.23;;;1.00;;
2293;SDS011;1155;42.644;23.264;2023-04-25T13:45:31;1.60;;;1.33;;
2293;SDS011;1155;42.644;23.264;2023-04-25T13:48:04;1.50;;;1.40;;
2293;SDS011;1155;42.644;23.264;2023-04-25T13:50:31;2.90;;;2.20;;
2293;SDS011;1155;42.644;23.264;2023-04-25T13:53:00;4.77;;;2.90;;
2293;SDS011;1155;42.644;23.264;2023-04-25T13:55:27;3.93;;;3.00;;
2293;SDS011;1155;42.644;23.264;2023-04-25T13:58:01;2.90;;;2.57;;
2293;SDS011;1155;42.644;23.264;2023-04-25T14:00:50;2.70;;;2.13;;
2293;SDS011;1155;42.644;23.264;2023-04-25T14:03:26;2.60;;;1.70;;
2293;SDS011;1155;42.644;23.264;2023-04-25T14:05:53;2.33;;;1.20;;
2293;SDS011;1155;42.644;23.264;2023-04-25T14:08:21;4.20;;;3.37;;
2293;SDS011;1155;42.644;23.264;2023-04-25T14:10:51;3.80;;;3.40;;
2293;SDS011;1155;42.644;23.264;2023-04-25T14:13:17;18.03;;;15.63;;
2293;SDS011;1155;42.644;23.264;2023-04-25T14:15:44;3.83;;;3.53;;
2293;SDS011;1155;42.644;23.264;2023-04-25T14:18:15;1.70;;;1.60;;
2293;SDS011;1155;42.644;23.264;2023-04-25T14:20:42;1.97;;;1.43;;
2293;SDS011;1155;42.644;23.264;2023-04-25T14:23:09;1.43;;;1.33;;
2293;SDS011;1155;42.644;23.264;2023-04-25T14:25:40;3.07;;;2.83;;
2293;SDS011;1155;42.644;23.264;2023-04-25T14:28:10;13.37;;;11.93;;
2293;SDS011;1155;42.644;23.264;2023-04-25T14:30:46;4.10;;;3.10;;
2293;SDS011;1155;42.644;23.264;2023-04-25T14:33:12;9.97;;;8.97;;
2293;SDS011;1155;42.644;23.264;2023-04-25T14:35:39;4.50;;;4.20;;
2293;SDS011;1155;42.644;23.264;2023-04-25T14:38:06;4.00;;;3.10;;
2293;SDS011;1155;42.644;23.264;2023-04-25T14:40:33;3.63;;;1.87;;
2293;SDS011;1155;42.644;23.264;2023-04-25T14:43:02;4.27;;;2.77;;
2293;SDS011;1155;42.644;23.264;2023-04-25T14:45:31;4.03;;;3.20;;
2293;SDS011;1155;42.644;23.264;2023-04-25T14:47:59;4.37;;;2.93;;
2293;SDS011;1155;42.644;23.264;2023-04-25T14:50:26;2.50;;;2.30;;
2293;SDS011;1155;42.644;23.264;2023-04-25T14:52:53;3.13;;;2.57;;
2293;SDS011;1155;42.644;23.264;2023-04-25T14:55:23;3.40;;;3.10;;
2293;SDS011;1155;42.644;23.264;2023-04-25T14:57:53;4.90;;;2.90;;
2293;SDS011;1155;42.644;23.264;2023-04-25T15:03:33;2.70;;;2.50;;
2293;SDS011;1155;42.644;23.264;2023-04-25T15:06:00;2.90;;;2.70;;
2293;SDS011;1155;42.644;23.264;2023-04-25T15:08:28;4.60;;;3.70;;
2293;SDS011;1155;42.644;23.264;2023-04-25T15:11:04;3.00;;;2.23;;
2293;SDS011;1155;42.644;23.264;2023-04-25T15:13:31;2.53;;;2.33;;